Terminal Aerodrome Forecast
Issued by NWS Melbourne, FL

Home | Current Version | Previous Version | Text Only | Print | Product List | Glossary On
Versions: 1 2 3 4 5 6 7 8 9 10 11 12 13 14 15 16 17 18 19 20 21
000
FTUS42 KMLB 300545
TAFMLB
TAF
KMLB 300545Z 3006/3106 12007KT 6SM -RA VCTS SCT020CB BKN100 OVC250
     FM301300 14012KT P6SM VCTS SCT020CB BKN035 OVC060
      TEMPO 3013/3017 3SM SHRA BKN020 OVC050
     FM301700 14014G20KT 6SM -RA VCTS BKN030CB OVC100
     FM310100 13007KT P6SM VCSH SCT020 BKN050 OVC250=

USA.gov is the U.S. government's official web portal to all federal, state and local government web resources and services.